sensor_id;sensor_type;location;lat;lon;timestamp;pressure;altitude;pressure_sealevel;temperature;humidity
30873;BME280;17579;42.690;2.586;2022-10-22T00:02:21;97013.03;;;20.86;51.65
30873;BME280;17579;42.690;2.586;2022-10-22T00:04:47;97017.78;;;20.84;51.58
30873;BME280;17579;42.690;2.586;2022-10-22T00:07:14;97011.00;;;20.82;51.63
30873;BME280;17579;42.690;2.586;2022-10-22T00:09:40;97003.13;;;20.80;51.60
30873;BME280;17579;42.690;2.586;2022-10-22T00:12:06;97002.91;;;20.82;51.32
30873;BME280;17579;42.690;2.586;2022-10-22T00:14:31;96998.34;;;20.82;51.30
30873;BME280;17579;42.690;2.586;2022-10-22T00:16:57;96997.56;;;20.82;51.61
30873;BME280;17579;42.690;2.586;2022-10-22T00:19:28;96991.97;;;20.76;51.10
30873;BME280;17579;42.690;2.586;2022-10-22T00:21:54;96999.00;;;20.77;51.42
30873;BME280;17579;42.690;2.586;2022-10-22T00:24:20;96990.50;;;20.81;51.12
30873;BME280;17579;42.690;2.586;2022-10-22T00:26:45;96993.78;;;20.83;50.95
30873;BME280;17579;42.690;2.586;2022-10-22T00:29:11;96993.78;;;20.83;51.24
30873;BME280;17579;42.690;2.586;2022-10-22T00:31:37;96989.28;;;20.76;50.68
30873;BME280;17579;42.690;2.586;2022-10-22T00:34:03;96987.25;;;20.72;50.98
30873;BME280;17579;42.690;2.586;2022-10-22T00:36:28;96993.66;;;20.71;50.92
30873;BME280;17579;42.690;2.586;2022-10-22T00:38:54;96993.66;;;20.71;51.08
30873;BME280;17579;42.690;2.586;2022-10-22T00:41:19;96991.41;;;20.68;50.83
30873;BME280;17579;42.690;2.586;2022-10-22T00:43:54;96999.25;;;20.63;50.78
30873;BME280;17579;42.690;2.586;2022-10-22T00:46:21;97001.31;;;20.67;50.79
30873;BME280;17579;42.690;2.586;2022-10-22T00:48:46;96985.59;;;20.64;50.93
30873;BME280;17579;42.690;2.586;2022-10-22T00:51:12;96982.09;;;20.64;50.40
30873;BME280;17579;42.690;2.586;2022-10-22T00:53:44;96979.41;;;20.64;50.59
30873;BME280;17579;42.690;2.586;2022-10-22T00:56:10;96980.66;;;20.68;50.41
30873;BME280;17579;42.690;2.586;2022-10-22T00:58:41;96986.03;;;20.68;50.32
30873;BME280;17579;42.690;2.586;2022-10-22T01:01:13;96984.78;;;20.70;50.15
30873;BME280;17579;42.690;2.586;2022-10-22T01:03:40;96977.53;;;20.64;49.93
30873;BME280;17579;42.690;2.586;2022-10-22T01:06:06;96969.38;;;20.46;50.38
30873;BME280;17579;42.690;2.586;2022-10-22T01:11:48;96944.28;;;20.27;50.01
30873;BME280;17579;42.690;2.586;2022-10-22T01:14:43;96946.31;;;20.31;50.39
30873;BME280;17579;42.690;2.586;2022-10-22T01:17:30;96936.78;;;20.35;50.15
30873;BME280;17579;42.690;2.586;2022-10-22T01:25:36;96930.97;;;20.45;49.59
30873;BME280;17579;42.690;2.586;2022-10-22T01:28:37;96926.06;;;20.35;49.39
30873;BME280;17579;42.690;2.586;2022-10-22T01:31:04;96934.75;;;20.37;49.40
30873;BME280;17579;42.690;2.586;2022-10-22T01:33:31;96932.28;;;20.36;49.66
30873;BME280;17579;42.690;2.586;2022-10-22T01:35:58;96931.88;;;20.32;49.63
30873;BME280;17579;42.690;2.586;2022-10-22T01:38:25;96937.06;;;20.27;49.08
30873;BME280;17579;42.690;2.586;2022-10-22T01:40:51;96955.03;;;20.27;49.43
30873;BME280;17579;42.690;2.586;2022-10-22T01:43:17;96949.44;;;20.28;49.48
30873;BME280;17579;42.690;2.586;2022-10-22T01:45:47;96936.84;;;20.29;49.65
30873;BME280;17579;42.690;2.586;2022-10-22T01:54:22;96926.94;;;20.22;49.37
30873;BME280;17579;42.690;2.586;2022-10-22T01:57:08;96928.78;;;20.29;48.65
30873;BME280;17579;42.690;2.586;2022-10-22T01:59:48;96927.31;;;20.33;48.70
30873;BME280;17579;42.690;2.586;2022-10-22T02:05:12;96914.66;;;20.40;48.21
30873;BME280;17579;42.690;2.586;2022-10-22T02:07:44;96911.59;;;20.36;48.01
30873;BME280;17579;42.690;2.586;2022-10-22T02:10:11;96909.50;;;20.38;47.66
30873;BME280;17579;42.690;2.586;2022-10-22T02:12:39;96916.78;;;20.31;47.82
30873;BME280;17579;42.690;2.586;2022-10-22T02:15:05;96918.44;;;20.32;47.52
30873;BME280;17579;42.690;2.586;2022-10-22T02:17:33;96924.63;;;20.33;47.38
30873;BME280;17579;42.690;2.586;2022-10-22T02:20:06;96927.31;;;20.33;47.34
30873;BME280;17579;42.690;2.586;2022-10-22T02:22:34;96924.81;;;20.38;47.30
30873;BME280;17579;42.690;2.586;2022-10-22T02:25:02;96919.22;;;20.39;47.13
30873;BME280;17579;42.690;2.586;2022-10-22T02:27:33;96916.53;;;20.39;47.18
30873;BME280;17579;42.690;2.586;2022-10-22T02:30:17;96910.78;;;20.36;47.58
30873;BME280;17579;42.690;2.586;2022-10-22T02:32:54;96916.09;;;20.42;46.99
30873;BME280;17579;42.690;2.586;2022-10-22T02:35:23;96911.13;;;20.46;47.03
30873;BME280;17579;42.690;2.586;2022-10-22T02:37:51;96916.50;;;20.46;46.76
30873;BME280;17579;42.690;2.586;2022-10-22T02:40:19;96920.81;;;20.47;47.02
30873;BME280;17579;42.690;2.586;2022-10-22T02:42:46;96911.56;;;20.43;46.62
30873;BME280;17579;42.690;2.586;2022-10-22T02:45:13;96907.03;;;20.37;46.67
30873;BME280;17579;42.690;2.586;2022-10-22T02:47:38;96896.94;;;20.32;47.01
30873;BME280;17579;42.690;2.586;2022-10-22T02:50:06;96898.41;;;20.28;46.86
30873;BME280;17579;42.690;2.586;2022-10-22T02:52:32;96900.50;;;20.26;46.61
30873;BME280;17579;42.690;2.586;2022-10-22T02:54:58;96898.63;;;20.27;46.38
30873;BME280;17579;42.690;2.586;2022-10-22T02:57:23;96898.25;;;20.23;46.21
30873;BME280;17579;42.690;2.586;2022-10-22T02:59:49;96909.03;;;20.16;46.56
30873;BME280;17579;42.690;2.586;2022-10-22T03:02:15;96910.09;;;20.08;46.67
30873;BME280;17579;42.690;2.586;2022-10-22T03:04:41;96901.50;;;19.93;46.72
30873;BME280;17579;42.690;2.586;2022-10-22T03:07:06;96909.59;;;19.80;46.78
30873;BME280;17579;42.690;2.586;2022-10-22T03:09:35;96917.44;;;19.74;47.22
30873;BME280;17579;42.690;2.586;2022-10-22T03:12:01;96921.56;;;19.77;47.03
30873;BME280;17579;42.690;2.586;2022-10-22T03:14:26;96936.44;;;19.80;46.67
30873;BME280;17579;42.690;2.586;2022-10-22T03:16:52;96939.50;;;19.83;46.80
30873;BME280;17579;42.690;2.586;2022-10-22T03:19:17;96930.81;;;19.88;46.68
30873;BME280;17579;42.690;2.586;2022-10-22T03:21:52;96930.44;;;19.84;47.07
30873;BME280;17579;42.690;2.586;2022-10-22T03:24:27;96926.91;;;19.84;47.11
30873;BME280;17579;42.690;2.586;2022-10-22T03:26:54;96915.34;;;19.90;47.47
30873;BME280;17579;42.690;2.586;2022-10-22T03:29:21;96909.34;;;19.88;47.93
30873;BME280;17579;42.690;2.586;2022-10-22T03:31:48;96903.75;;;19.89;47.51
30873;BME280;17579;42.690;2.586;2022-10-22T03:34:13;96901.06;;;19.96;47.28
30873;BME280;17579;42.690;2.586;2022-10-22T03:36:40;96897.94;;;19.99;46.64
30873;BME280;17579;42.690;2.586;2022-10-22T03:39:06;96889.47;;;20.02;46.56
30873;BME280;17579;42.690;2.586;2022-10-22T03:41:32;96883.50;;;20.00;46.90
30873;BME280;17579;42.690;2.586;2022-10-22T03:44:00;96916.34;;;19.96;46.61
30873;BME280;17579;42.690;2.586;2022-10-22T03:46:26;96925.44;;;19.95;46.58
30873;BME280;17579;42.690;2.586;2022-10-22T03:48:52;96931.03;;;19.93;46.55
30873;BME280;17579;42.690;2.586;2022-10-22T03:51:19;96941.13;;;19.91;46.81
30873;BME280;17579;42.690;2.586;2022-10-22T03:53:44;96949.59;;;19.95;46.49
30873;BME280;17579;42.690;2.586;2022-10-22T03:56:10;96946.91;;;19.95;46.43
30873;BME280;17579;42.690;2.586;2022-10-22T03:58:37;96948.56;;;19.96;46.43
30873;BME280;17579;42.690;2.586;2022-10-22T04:01:05;96942.34;;;19.95;46.34
30873;BME280;17579;42.690;2.586;2022-10-22T04:03:32;96942.78;;;19.99;46.14
30873;BME280;17579;42.690;2.586;2022-10-22T04:06:05;96951.63;;;19.99;45.96
30873;BME280;17579;42.690;2.586;2022-10-22T04:08:32;96941.69;;;20.06;45.79
30873;BME280;17579;42.690;2.586;2022-10-22T04:10:57;96947.06;;;20.06;46.09
30873;BME280;17579;42.690;2.586;2022-10-22T04:13:23;96949.97;;;20.05;46.11
30873;BME280;17579;42.690;2.586;2022-10-22T04:15:49;96952.44;;;20.06;46.17
30873;BME280;17579;42.690;2.586;2022-10-22T04:18:17;96957.41;;;20.03;46.17
30873;BME280;17579;42.690;2.586;2022-10-22T04:20:44;96960.72;;;19.98;45.92
30873;BME280;17579;42.690;2.586;2022-10-22T04:23:09;96956.00;;;19.94;46.10
30873;BME280;17579;42.690;2.586;2022-10-22T04:25:35;96957.44;;;19.89;46.09
30873;BME280;17579;42.690;2.586;2022-10-22T04:28:01;96966.13;;;19.85;45.73
30873;BME280;17579;42.690;2.586;2022-10-22T04:30:26;96969.03;;;19.83;45.98
30873;BME280;17579;42.690;2.586;2022-10-22T04:32:52;96954.81;;;19.83;46.05
30873;BME280;17579;42.690;2.586;2022-10-22T04:35:17;96956.44;;;19.84;45.78
30873;BME280;17579;42.690;2.586;2022-10-22T04:37:43;96958.91;;;19.85;45.45
30873;BME280;17579;42.690;2.586;2022-10-22T04:40:09;96966.94;;;19.85;45.73
30873;BME280;17579;42.690;2.586;2022-10-22T04:42:35;96958.09;;;19.85;45.33
30873;BME280;17579;42.690;2.586;2022-10-22T04:45:01;96951.28;;;19.82;45.55
30873;BME280;17579;42.690;2.586;2022-10-22T04:47:26;96959.97;;;19.84;45.42
30873;BME280;17579;42.690;2.586;2022-10-22T04:49:52;96972.31;;;19.85;45.21
30873;BME280;17579;42.690;2.586;2022-10-22T04:52:17;96971.50;;;19.85;45.07
30873;BME280;17579;42.690;2.586;2022-10-22T04:54:43;96966.94;;;19.85;44.99
30873;BME280;17579;42.690;2.586;2022-10-22T04:57:08;96979.56;;;19.85;45.08
30873;BME280;17579;42.690;2.586;2022-10-22T04:59:34;96984.13;;;19.84;44.89
30873;BME280;17579;42.690;2.586;2022-10-22T05:02:00;96987.41;;;19.86;44.99
30873;BME280;17579;42.690;2.586;2022-10-22T05:04:26;96990.50;;;19.90;45.09
30873;BME280;17579;42.690;2.586;2022-10-22T05:06:51;96987.16;;;19.95;44.81
30873;BME280;17579;42.690;2.586;2022-10-22T05:09:19;96991.91;;;19.99;44.66
30873;BME280;17579;42.690;2.586;2022-10-22T05:11:47;96987.97;;;20.02;44.80
30873;BME280;17579;42.690;2.586;2022-10-22T05:14:16;96987.97;;;20.02;44.83
30873;BME280;17579;42.690;2.586;2022-10-22T05:16:42;97002.63;;;20.06;44.35
30873;BME280;17579;42.690;2.586;2022-10-22T05:19:15;96996.03;;;20.02;44.69
30873;BME280;17579;42.690;2.586;2022-10-22T05:21:44;96987.75;;;20.03;44.10
30873;BME280;17579;42.690;2.586;2022-10-22T05:24:09;96991.25;;;20.04;43.94
30873;BME280;17579;42.690;2.586;2022-10-22T05:26:35;96986.31;;;20.07;43.91
30873;BME280;17579;42.690;2.586;2022-10-22T05:29:01;96991.03;;;20.12;43.75
30873;BME280;17579;42.690;2.586;2022-10-22T05:31:26;96992.66;;;20.20;43.06
30873;BME280;17579;42.690;2.586;2022-10-22T05:33:54;97000.69;;;20.27;43.53
30873;BME280;17579;42.690;2.586;2022-10-22T05:36:21;97003.78;;;20.30;43.27
30873;BME280;17579;42.690;2.586;2022-10-22T05:38:48;97004.16;;;20.34;43.29
30873;BME280;17579;42.690;2.586;2022-10-22T05:41:16;96992.38;;;20.35;42.95
30873;BME280;17579;42.690;2.586;2022-10-22T05:43:42;96990.72;;;20.40;43.09
30873;BME280;17579;42.690;2.586;2022-10-22T05:46:17;97004.75;;;20.42;43.01
30873;BME280;17579;42.690;2.586;2022-10-22T05:48:43;97003.69;;;20.50;42.88
30873;BME280;17579;42.690;2.586;2022-10-22T05:51:11;97010.69;;;20.51;42.73
30873;BME280;17579;42.690;2.586;2022-10-22T05:53:39;97015.66;;;20.54;42.54
30873;BME280;17579;42.690;2.586;2022-10-22T05:56:08;97021.66;;;20.50;42.62
30873;BME280;17579;42.690;2.586;2022-10-22T05:58:35;97017.75;;;20.46;42.47
30873;BME280;17579;42.690;2.586;2022-10-22T06:01:14;97006.19;;;20.38;42.68
30873;BME280;17579;42.690;2.586;2022-10-22T06:03:41;97001.63;;;20.46;42.42
30873;BME280;17579;42.690;2.586;2022-10-22T06:06:25;97000.22;;;20.43;42.47
30873;BME280;17579;42.690;2.586;2022-10-22T06:08:53;96998.31;;;20.50;42.05
30873;BME280;17579;42.690;2.586;2022-10-22T06:11:21;96978.50;;;20.45;42.32
30873;BME280;17579;42.690;2.586;2022-10-22T06:13:47;96970.03;;;20.41;41.94
30873;BME280;17579;42.690;2.586;2022-10-22T06:16:13;96958.28;;;20.35;42.22
30873;BME280;17579;42.690;2.586;2022-10-22T06:18:40;96993.63;;;20.32;42.09
30873;BME280;17579;42.690;2.586;2022-10-22T06:21:08;96994.28;;;20.28;42.65
30873;BME280;17579;42.690;2.586;2022-10-22T06:23:34;97004.41;;;20.25;41.99
30873;BME280;17579;42.690;2.586;2022-10-22T06:26:01;97018.03;;;20.24;42.08
30873;BME280;17579;42.690;2.586;2022-10-22T06:28:27;97031.09;;;20.20;42.45
30873;BME280;17579;42.690;2.586;2022-10-22T06:30:53;97022.41;;;20.18;42.06
30873;BME280;17579;42.690;2.586;2022-10-22T06:33:18;97040.16;;;20.13;42.33
30873;BME280;17579;42.690;2.586;2022-10-22T06:35:44;97033.78;;;20.14;42.99
30873;BME280;17579;42.690;2.586;2022-10-22T06:38:10;97032.97;;;20.13;42.90
30873;BME280;17579;42.690;2.586;2022-10-22T06:40:36;97034.19;;;20.17;42.97
30873;BME280;17579;42.690;2.586;2022-10-22T06:43:01;97031.09;;;20.20;42.91
30873;BME280;17579;42.690;2.586;2022-10-22T06:45:27;97020.34;;;20.20;42.94
30873;BME280;17579;42.690;2.586;2022-10-22T06:47:52;96999.06;;;20.19;42.73
30873;BME280;17579;42.690;2.586;2022-10-22T06:50:20;97024.47;;;20.16;43.28
30873;BME280;17579;42.690;2.586;2022-10-22T06:52:45;97036.25;;;20.15;43.28
30873;BME280;17579;42.690;2.586;2022-10-22T06:55:11;97035.66;;;20.13;43.25
30873;BME280;17579;42.690;2.586;2022-10-22T06:57:37;97014.41;;;20.05;43.38
30873;BME280;17579;42.690;2.586;2022-10-22T07:00:05;97038.78;;;19.97;44.05
30873;BME280;17579;42.690;2.586;2022-10-22T07:02:30;97050.34;;;19.97;44.45
30873;BME280;17579;42.690;2.586;2022-10-22T07:04:56;97037.94;;;20.03;45.47
30873;BME280;17579;42.690;2.586;2022-10-22T07:07:22;97039.59;;;20.04;45.16
30873;BME280;17579;42.690;2.586;2022-10-22T07:09:48;97025.97;;;19.99;45.88
30873;BME280;17579;42.690;2.586;2022-10-22T07:12:15;97038.81;;;19.90;46.05
30873;BME280;17579;42.690;2.586;2022-10-22T07:14:41;97062.34;;;19.95;46.27
30873;BME280;17579;42.690;2.586;2022-10-22T07:17:06;97061.53;;;19.94;45.77
30873;BME280;17579;42.690;2.586;2022-10-22T07:19:32;97057.56;;;19.97;46.43
30873;BME280;17579;42.690;2.586;2022-10-22T07:21:58;97056.97;;;20.01;45.94
30873;BME280;17579;42.690;2.586;2022-10-22T07:24:24;97050.75;;;20.07;46.30
30873;BME280;17579;42.690;2.586;2022-10-22T07:26:49;97036.91;;;20.04;46.59
30873;BME280;17579;42.690;2.586;2022-10-22T07:29:15;97057.16;;;19.93;46.61
30873;BME280;17579;42.690;2.586;2022-10-22T07:31:41;97055.31;;;19.94;46.58
30873;BME280;17579;42.690;2.586;2022-10-22T07:34:07;97059.66;;;20.01;46.93
30873;BME280;17579;42.690;2.586;2022-10-22T07:36:33;97061.69;;;20.06;47.19
30873;BME280;17579;42.690;2.586;2022-10-22T07:38:59;97060.25;;;20.10;46.93
30873;BME280;17579;42.690;2.586;2022-10-22T07:41:27;97073.44;;;20.12;47.23
30873;BME280;17579;42.690;2.586;2022-10-22T07:43:52;97080.44;;;20.19;47.00
30873;BME280;17579;42.690;2.586;2022-10-22T07:46:18;97104.81;;;20.24;47.11
30873;BME280;17579;42.690;2.586;2022-10-22T07:48:44;97093.44;;;20.29;47.31
30873;BME280;17579;42.690;2.586;2022-10-22T07:51:10;97097.56;;;20.25;48.26
30873;BME280;17579;42.690;2.586;2022-10-22T07:53:35;97083.13;;;20.13;49.48
30873;BME280;17579;42.690;2.586;2022-10-22T07:56:01;97084.41;;;20.03;50.03
30873;BME280;17579;42.690;2.586;2022-10-22T07:58:27;97081.94;;;19.95;51.52
30873;BME280;17579;42.690;2.586;2022-10-22T08:00:55;97074.13;;;19.87;52.24
30873;BME280;17579;42.690;2.586;2022-10-22T08:03:21;97105.09;;;19.83;52.43
30873;BME280;17579;42.690;2.586;2022-10-22T08:05:47;97118.09;;;19.79;53.12
30873;BME280;17579;42.690;2.586;2022-10-22T08:08:14;97127.59;;;19.82;53.26
30873;BME280;17579;42.690;2.586;2022-10-22T08:10:40;97119.13;;;19.92;53.75
30873;BME280;17579;42.690;2.586;2022-10-22T08:13:07;97124.47;;;19.98;53.88
30873;BME280;17579;42.690;2.586;2022-10-22T08:15:32;97124.28;;;20.00;54.63
30873;BME280;17579;42.690;2.586;2022-10-22T08:17:58;97126.97;;;20.00;55.50
30873;BME280;17579;42.690;2.586;2022-10-22T08:20:24;97143.25;;;19.98;55.89
30873;BME280;17579;42.690;2.586;2022-10-22T08:22:49;97129.22;;;20.03;55.97
30873;BME280;17579;42.690;2.586;2022-10-22T08:25:15;97129.84;;;20.05;56.46
30873;BME280;17579;42.690;2.586;2022-10-22T08:27:42;97145.09;;;20.11;56.25
30873;BME280;17579;42.690;2.586;2022-10-22T08:30:09;97132.69;;;20.17;56.97
30873;BME280;17579;42.690;2.586;2022-10-22T08:32:34;97136.03;;;20.12;57.69
30873;BME280;17579;42.690;2.586;2022-10-22T08:35:00;97141.38;;;20.12;58.48
30873;BME280;17579;42.690;2.586;2022-10-22T08:37:25;97124.69;;;20.03;59.70
30873;BME280;17579;42.690;2.586;2022-10-22T08:39:52;97152.16;;;19.99;59.72
30873;BME280;17579;42.690;2.586;2022-10-22T08:45:31;97148.03;;;20.03;58.75
30873;BME280;17579;42.690;2.586;2022-10-22T08:50:51;97145.13;;;20.04;59.00
30873;BME280;17579;42.690;2.586;2022-10-22T08:53:22;97147.38;;;20.01;59.30
30873;BME280;17579;42.690;2.586;2022-10-22T08:55:52;97130.25;;;20.02;59.61
30873;BME280;17579;42.690;2.586;2022-10-22T08:58:37;97144.72;;;19.94;59.04
30873;BME280;17579;42.690;2.586;2022-10-22T09:01:21;97145.75;;;20.00;59.66
30873;BME280;17579;42.690;2.586;2022-10-22T09:03:56;97139.53;;;19.99;59.85
30873;BME280;17579;42.690;2.586;2022-10-22T09:06:25;97148.03;;;20.03;61.37
30873;BME280;17579;42.690;2.586;2022-10-22T09:08:51;97156.06;;;20.03;61.84
30873;BME280;17579;42.690;2.586;2022-10-22T09:11:35;97152.75;;;20.01;61.70
30873;BME280;17579;42.690;2.586;2022-10-22T09:14:02;97135.84;;;20.00;62.20
30873;BME280;17579;42.690;2.586;2022-10-22T09:25:35;97137.09;;;19.84;62.02
30873;BME280;17579;42.690;2.586;2022-10-22T09:28:01;97137.91;;;19.85;62.11
30873;BME280;17579;42.690;2.586;2022-10-22T09:30:33;97143.91;;;19.87;61.49
30873;BME280;17579;42.690;2.586;2022-10-22T09:33:06;97154.19;;;19.97;61.47
30873;BME280;17579;42.690;2.586;2022-10-22T09:35:47;97158.75;;;19.96;61.41
30873;BME280;17579;42.690;2.586;2022-10-22T09:38:18;97133.34;;;20.05;61.41
30873;BME280;17579;42.690;2.586;2022-10-22T09:40:47;97134.59;;;20.03;61.38
30873;BME280;17579;42.690;2.586;2022-10-22T09:43:14;97153.56;;;20.15;61.81
30873;BME280;17579;42.690;2.586;2022-10-22T09:45:41;97130.00;;;20.30;61.98
30873;BME280;17579;42.690;2.586;2022-10-22T09:48:20;97112.84;;;20.31;60.82
30873;BME280;17579;42.690;2.586;2022-10-22T09:50:58;97147.91;;;20.50;60.69
30873;BME280;17579;42.690;2.586;2022-10-22T09:53:35;97139.84;;;20.50;62.20
30873;BME280;17579;42.690;2.586;2022-10-22T09:56:08;97135.34;;;20.50;62.52
30873;BME280;17579;42.690;2.586;2022-10-22T09:58:45;97125.59;;;20.56;62.88
30873;BME280;17579;42.690;2.586;2022-10-22T10:01:20;97125.06;;;20.86;63.50
30873;BME280;17579;42.690;2.586;2022-10-22T10:03:48;97158.81;;;21.27;64.00
30873;BME280;17579;42.690;2.586;2022-10-22T10:06:18;97131.59;;;21.42;63.37
30873;BME280;17579;42.690;2.586;2022-10-22T10:08:44;97156.53;;;21.62;63.37
30873;BME280;17579;42.690;2.586;2022-10-22T10:14:09;97154.44;;;22.15;60.65
30873;BME280;17579;42.690;2.586;2022-10-22T10:16:44;97145.19;;;22.29;60.06
30873;BME280;17579;42.690;2.586;2022-10-22T10:19:34;97148.81;;;22.42;59.42
30873;BME280;17579;42.690;2.586;2022-10-22T10:22:15;97128.47;;;22.64;59.26
30873;BME280;17579;42.690;2.586;2022-10-22T10:25:12;97145.22;;;22.66;58.95
30873;BME280;17579;42.690;2.586;2022-10-22T10:27:55;97153.53;;;22.83;58.30
30873;BME280;17579;42.690;2.586;2022-10-22T10:30:25;97145.13;;;23.10;57.91
30873;BME280;17579;42.690;2.586;2022-10-22T10:38:56;97131.31;;;23.18;57.59
30873;BME280;17579;42.690;2.586;2022-10-22T10:41:35;97130.16;;;23.14;57.14
30873;BME280;17579;42.690;2.586;2022-10-22T10:47:44;97152.59;;;23.08;56.98
30873;BME280;17579;42.690;2.586;2022-10-22T10:53:26;97142.25;;;23.24;56.85
30873;BME280;17579;42.690;2.586;2022-10-22T10:56:03;97141.25;;;23.37;56.42
30873;BME280;17579;42.690;2.586;2022-10-22T10:58:50;97139.28;;;23.44;56.21
30873;BME280;17579;42.690;2.586;2022-10-22T11:01:28;97128.28;;;23.57;56.59
30873;BME280;17579;42.690;2.586;2022-10-22T11:06:59;97131.34;;;23.61;56.01
30873;BME280;17579;42.690;2.586;2022-10-22T11:09:31;97135.56;;;23.57;55.97
30873;BME280;17579;42.690;2.586;2022-10-22T11:12:03;97139.22;;;23.62;55.71
30873;BME280;17579;42.690;2.586;2022-10-22T11:14:55;97133.91;;;23.56;55.78
30873;BME280;17579;42.690;2.586;2022-10-22T11:17:23;97132.25;;;23.55;55.10
30873;BME280;17579;42.690;2.586;2022-10-22T11:20:14;97119.56;;;23.43;55.21
30873;BME280;17579;42.690;2.586;2022-10-22T11:22:46;97107.94;;;23.55;55.45
30873;BME280;17579;42.690;2.586;2022-10-22T11:25:23;97110.69;;;23.66;55.72
30873;BME280;17579;42.690;2.586;2022-10-22T11:27:58;97113.28;;;23.73;55.27
30873;BME280;17579;42.690;2.586;2022-10-22T11:30:27;97106.97;;;23.79;55.36
30873;BME280;17579;42.690;2.586;2022-10-22T11:33:00;97105.53;;;23.77;55.07
30873;BME280;17579;42.690;2.586;2022-10-22T11:35:31;97110.59;;;23.85;55.29
30873;BME280;17579;42.690;2.586;2022-10-22T11:37:58;97110.72;;;24.02;54.72
30873;BME280;17579;42.690;2.586;2022-10-22T11:40:35;97094.78;;;24.12;54.75
30873;BME280;17579;42.690;2.586;2022-10-22T11:43:07;97100.53;;;24.16;54.11
30873;BME280;17579;42.690;2.586;2022-10-22T11:45:36;97091.22;;;24.24;53.53
30873;BME280;17579;42.690;2.586;2022-10-22T11:48:18;97083.22;;;24.29;52.98
30873;BME280;17579;42.690;2.586;2022-10-22T11:50:58;97070.28;;;24.31;53.33
30873;BME280;17579;42.690;2.586;2022-10-22T11:53:33;97076.53;;;24.31;52.97
30873;BME280;17579;42.690;2.586;2022-10-22T11:56:24;97071.00;;;24.26;53.14
30873;BME280;17579;42.690;2.586;2022-10-22T11:58:50;97074.41;;;24.33;52.94
30873;BME280;17579;42.690;2.586;2022-10-22T12:01:22;97069.69;;;24.41;53.26
30873;BME280;17579;42.690;2.586;2022-10-22T12:04:14;97068.16;;;24.45;53.19
30873;BME280;17579;42.690;2.586;2022-10-22T12:07:00;97068.53;;;24.48;52.90
30873;BME280;17579;42.690;2.586;2022-10-22T12:09:28;97055.81;;;24.49;52.54
30873;BME280;17579;42.690;2.586;2022-10-22T12:12:12;97063.47;;;24.40;52.55
30873;BME280;17579;42.690;2.586;2022-10-22T12:14:57;97064.72;;;24.49;52.87
30873;BME280;17579;42.690;2.586;2022-10-22T12:17:24;97053.09;;;24.61;52.48
30873;BME280;17579;42.690;2.586;2022-10-22T12:19:59;97053.22;;;24.66;52.60
30873;BME280;17579;42.690;2.586;2022-10-22T12:22:30;97043.41;;;24.77;52.07
30873;BME280;17579;42.690;2.586;2022-10-22T12:25:00;97053.84;;;24.85;51.36
30873;BME280;17579;42.690;2.586;2022-10-22T12:27:33;97053.09;;;24.72;51.29
30873;BME280;17579;42.690;2.586;2022-10-22T12:30:00;97044.75;;;24.62;50.87
30873;BME280;17579;42.690;2.586;2022-10-22T12:32:34;97025.34;;;24.53;51.05
30873;BME280;17579;42.690;2.586;2022-10-22T12:35:17;97023.38;;;24.49;51.90
30873;BME280;17579;42.690;2.586;2022-10-22T12:37:42;97013.47;;;24.54;51.32
30873;BME280;17579;42.690;2.586;2022-10-22T12:40:23;97022.06;;;24.51;51.71
30873;BME280;17579;42.690;2.586;2022-10-22T12:42:55;97021.81;;;24.65;51.21
30873;BME280;17579;42.690;2.586;2022-10-22T12:45:22;97006.88;;;24.62;51.72
30873;BME280;17579;42.690;2.586;2022-10-22T12:47:54;96997.47;;;24.65;51.42
30873;BME280;17579;42.690;2.586;2022-10-22T12:50:24;97013.00;;;24.58;51.47
30873;BME280;17579;42.690;2.586;2022-10-22T12:52:53;96999.47;;;24.58;51.54
30873;BME280;17579;42.690;2.586;2022-10-22T12:55:21;97006.41;;;24.53;51.39
30873;BME280;17579;42.690;2.586;2022-10-22T12:57:51;97006.78;;;24.57;51.79
30873;BME280;17579;42.690;2.586;2022-10-22T13:00:26;97004.53;;;24.66;51.60
30873;BME280;17579;42.690;2.586;2022-10-22T13:02:53;96997.09;;;24.73;51.38
30873;BME280;17579;42.690;2.586;2022-10-22T13:05:26;96987.44;;;24.77;51.31
30873;BME280;17579;42.690;2.586;2022-10-22T13:08:00;96978.34;;;24.83;51.11
30873;BME280;17579;42.690;2.586;2022-10-22T13:10:33;96980.47;;;24.81;51.30
30873;BME280;17579;42.690;2.586;2022-10-22T13:12:59;96971.53;;;24.81;51.10
30873;BME280;17579;42.690;2.586;2022-10-22T13:15:37;96978.41;;;24.71;51.58
30873;BME280;17579;42.690;2.586;2022-10-22T13:18:22;96972.25;;;24.76;51.84
30873;BME280;17579;42.690;2.586;2022-10-22T13:20:58;96976.31;;;24.90;50.88
30873;BME280;17579;42.690;2.586;2022-10-22T13:23:30;96964.81;;;24.83;51.24
30873;BME280;17579;42.690;2.586;2022-10-22T13:26:12;96957.19;;;24.80;51.33
30873;BME280;17579;42.690;2.586;2022-10-22T13:28:39;96948.94;;;24.87;51.49
30873;BME280;17579;42.690;2.586;2022-10-22T13:31:18;96962.69;;;24.85;51.23
30873;BME280;17579;42.690;2.586;2022-10-22T13:33:46;96950.47;;;24.83;51.33
30873;BME280;17579;42.690;2.586;2022-10-22T13:36:16;96954.81;;;24.84;51.54
30873;BME280;17579;42.690;2.586;2022-10-22T13:38:43;96948.34;;;24.85;51.82
30873;BME280;17579;42.690;2.586;2022-10-22T13:41:26;96941.03;;;24.85;51.43
30873;BME280;17579;42.690;2.586;2022-10-22T13:43:53;96932.13;;;24.85;51.77
30873;BME280;17579;42.690;2.586;2022-10-22T13:46:20;96931.88;;;24.86;51.42
30873;BME280;17579;42.690;2.586;2022-10-22T13:48:47;96926.22;;;24.88;51.48
30873;BME280;17579;42.690;2.586;2022-10-22T13:51:16;96925.50;;;24.93;51.39
30873;BME280;17579;42.690;2.586;2022-10-22T13:53:44;96919.91;;;24.99;51.35
30873;BME280;17579;42.690;2.586;2022-10-22T13:56:15;96920.91;;;25.10;51.55
30873;BME280;17579;42.690;2.586;2022-10-22T13:58:42;96914.34;;;25.23;50.85
30873;BME280;17579;42.690;2.586;2022-10-22T14:01:26;96909.66;;;25.35;51.13
30873;BME280;17579;42.690;2.586;2022-10-22T14:03:54;96926.69;;;25.53;50.43
30873;BME280;17579;42.690;2.586;2022-10-22T14:06:23;96911.97;;;25.66;50.17